Time;durP1;ratioP1;P1;durP2;ratioP2;P2;SDS_P1;SDS_P2;PMS_P1;PMS_P2;Temp;Humidity;BMP_temperature;BMP_pressure;BME280_temperature;BME280_humidity;BME280_pressure;Samples;Min_cycle;Max_cycle;Signal;HPM_P1;HPM_P2
2023/04/01 00:00:46;;;;;;;1.30;0.50;;;21.30;73.30;;;;;;6298129;28;20372;-53
2023/04/01 00:03:48;;;;;;;0.65;0.50;;;21.30;72.90;;;;;;6298606;28;20051;-51
2023/04/01 00:06:51;;;;;;;1.23;0.40;;;21.10;72.70;;;;;;6298273;28;20048;-49
2023/04/01 00:09:52;;;;;;;0.65;0.40;;;21.30;72.60;;;;;;6298041;28;20072;-51
2023/04/01 00:12:55;;;;;;;;;;;21.10;71.90;;;;;;6298612;28;20468;-52
2023/04/01 00:15:57;;;;;;;1.05;0.40;;;21.10;72.90;;;;;;6297822;28;19948;-51
2023/04/01 00:19:00;;;;;;;1.70;0.50;;;21.30;72.60;;;;;;6297698;28;20567;-50
2023/04/01 00:22:03;;;;;;;0.93;0.57;;;21.20;72.40;;;;;;6298112;28;20404;-51
2023/04/01 00:25:05;;;;;;;1.75;0.70;;;21.10;72.20;;;;;;6297673;28;20043;-50
2023/04/01 00:28:10;;;;;;;1.15;0.30;;;21.20;72.20;;;;;;6263721;28;20416;-52
2023/04/01 00:31:12;;;;;;;0.82;0.40;;;21.20;72.20;;;;;;6297310;28;20080;-47
2023/04/01 00:34:16;;;;;;;0.63;0.40;;;21.30;72.10;;;;;;6280104;28;20044;-51
2023/04/01 00:37:19;;;;;;;0.93;0.30;;;21.20;72.00;;;;;;6297783;28;20048;-52
2023/04/01 00:40:25;;;;;;;0.60;0.40;;;21.40;71.90;;;;;;6297345;28;20094;-50
2023/04/01 00:43:26;;;;;;;1.30;0.50;;;21.10;71.50;;;;;;6297914;28;20086;-52
2023/04/01 00:46:29;;;;;;;0.52;0.20;;;21.20;71.80;;;;;;6297580;28;20089;-53
2023/04/01 00:49:35;;;;;;;0.95;0.50;;;21.30;71.60;;;;;;6297191;28;20048;-50
2023/04/01 00:52:37;;;;;;;1.00;0.55;;;21.00;71.40;;;;;;6279652;28;20042;-52
2023/04/01 00:55:43;;;;;;;1.10;0.40;;;21.30;71.80;;;;;;6297461;28;20385;-50
2023/04/01 00:58:51;;;;;;;1.23;0.65;;;21.20;71.50;;;;;;6279371;28;20055;-52
2023/04/01 01:01:52;;;;;;;1.10;0.40;;;21.40;71.70;;;;;;6297048;28;20044;-50
2023/04/01 01:04:54;;;;;;;1.17;0.43;;;21.20;71.80;;;;;;6296727;28;20045;-50
2023/04/01 01:08:06;;;;;;;0.70;0.25;;;21.10;71.70;;;;;;6297112;28;20044;-49
2023/04/01 01:11:11;;;;;;;1.65;0.60;;;21.20;71.80;;;;;;6296987;28;20044;-52
2023/04/01 01:14:26;;;;;;;1.02;0.43;;;21.20;71.60;;;;;;6296537;28;20082;-49
2023/04/01 01:17:38;;;;;;;0.73;0.25;;;21.20;71.60;;;;;;6297082;28;20045;-53
2023/04/01 01:21:19;;;;;;;0.52;0.35;;;20.90;71.50;;;;;;6296935;28;20048;-50
2023/04/01 01:24:40;;;;;;;0.52;0.20;;;21.10;71.50;;;;;;6284890;28;20072;-51
2023/04/01 01:27:48;;;;;;;1.20;0.52;;;21.20;71.50;;;;;;6279736;28;20040;-51
2023/04/01 01:30:55;;;;;;;0.30;0.30;;;21.10;71.50;;;;;;6296721;28;20048;-50
2023/04/01 01:34:12;;;;;;;0.52;0.30;;;21.30;71.40;;;;;;6280144;28;20086;-49
2023/04/01 01:37:16;;;;;;;0.60;0.30;;;21.00;71.30;;;;;;6296564;28;20482;-50
2023/04/01 01:40:18;;;;;;;0.35;0.20;;;21.10;71.40;;;;;;6279009;28;20492;-48
2023/04/01 01:43:25;;;;;;;0.32;0.22;;;21.10;71.50;;;;;;6296669;28;20080;-49
2023/04/01 01:46:29;;;;;;;0.77;0.30;;;21.00;71.20;;;;;;6279160;28;20048;-52
2023/04/01 01:49:33;;;;;;;0.77;0.30;;;21.10;71.20;;;;;;6297115;28;20567;-51
2023/04/01 01:52:35;;;;;;;0.52;0.30;;;21.10;71.10;;;;;;6296637;28;20519;-52
2023/04/01 01:55:39;;;;;;;0.70;0.30;;;20.90;71.30;;;;;;6296339;28;20044;-52
2023/04/01 01:58:44;;;;;;;0.50;0.32;;;21.10;71.20;;;;;;6296704;28;20055;-52
2023/04/01 02:01:53;;;;;;;0.30;0.20;;;21.10;71.10;;;;;;6296179;28;20048;-52
2023/04/01 02:04:55;;;;;;;0.43;0.25;;;21.10;71.70;;;;;;6296208;28;20045;-53
2023/04/01 02:08:05;;;;;;;0.52;0.30;;;21.20;71.40;;;;;;6296502;28;20044;-53
2023/04/01 02:11:10;;;;;;;0.47;0.30;;;21.10;71.00;;;;;;6296223;28;20135;-53
2023/04/01 02:14:20;;;;;;;1.02;0.50;;;21.10;71.10;;;;;;6296148;28;20127;-53
2023/04/01 02:17:23;;;;;;;0.43;0.22;;;21.10;71.10;;;;;;6282062;28;20526;-51
2023/04/01 02:20:28;;;;;;;0.70;0.20;;;21.00;71.00;;;;;;6300096;28;20113;-51
2023/04/01 02:23:33;;;;;;;0.65;0.20;;;21.00;71.10;;;;;;6282633;28;20048;-53
2023/04/01 02:26:35;;;;;;;0.20;0.20;;;20.80;70.80;;;;;;6300164;28;20036;-50
2023/04/01 02:29:38;;;;;;;0.30;0.20;;;21.10;70.90;;;;;;6300634;28;20044;-52
2023/04/01 02:32:43;;;;;;;0.38;0.35;;;21.10;71.00;;;;;;6283595;28;20523;-51
2023/04/01 02:35:44;;;;;;;0.47;0.20;;;21.20;70.90;;;;;;6300068;28;20044;-52
2023/04/01 02:38:46;;;;;;;;;;;21.00;70.90;;;;;;6282809;28;20048;-53
2023/04/01 02:41:48;;;;;;;0.80;0.20;;;21.00;71.30;;;;;;6300039;28;19924;-52
2023/04/01 02:44:50;;;;;;;0.22;0.17;;;21.00;70.90;;;;;;6299856;28;20412;-50
2023/04/01 02:47:51;;;;;;;;;;;21.00;70.90;;;;;;6300529;28;20389;-50
2023/04/01 02:50:52;;;;;;;0.30;0.20;;;20.80;71.20;;;;;;6299936;28;20007;-53
2023/04/01 02:53:55;;;;;;;0.63;0.32;;;21.10;71.10;;;;;;6299653;28;20404;-53
2023/04/01 02:56:56;;;;;;;0.55;0.30;;;21.00;71.00;;;;;;6299937;28;20040;-50
2023/04/01 02:59:58;;;;;;;;;;;21.10;71.60;;;;;;6300671;28;20500;-52
2023/04/01 03:03:00;;;;;;;0.40;0.20;;;20.80;71.20;;;;;;6299554;28;20452;-52
2023/04/01 03:06:05;;;;;;;0.38;0.20;;;21.30;71.10;;;;;;6281927;28;20086;-51
2023/04/01 03:09:07;;;;;;;0.35;0.20;;;21.10;70.70;;;;;;6299622;28;20119;-51
2023/04/01 03:12:09;;;;;;;0.20;0.10;;;21.00;70.80;;;;;;6299243;28;20072;-49
2023/04/01 03:15:23;;;;;;;0.63;0.20;;;21.00;70.80;;;;;;6299659;28;20051;-52
2023/04/01 03:18:31;;;;;;;0.52;0.20;;;21.10;70.60;;;;;;6299300;28;20067;-53
2023/04/01 03:21:33;;;;;;;;;;;21.10;70.90;;;;;;6299550;28;20051;-52
2023/04/01 03:24:36;;;;;;;0.30;0.20;;;21.00;71.30;;;;;;6299481;28;20457;-48
2023/04/01 03:27:37;;;;;;;0.47;0.30;;;21.10;71.00;;;;;;6298459;28;20040;-54
2023/04/01 03:30:40;;;;;;;0.50;0.30;;;20.90;70.90;;;;;;6299133;28;20060;-50
2023/04/01 03:33:42;;;;;;;0.20;0.20;;;20.90;70.80;;;;;;6281480;28;20140;-47
2023/04/01 03:36:45;;;;;;;0.68;0.22;;;21.10;70.90;;;;;;6281295;28;20396;-52
2023/04/01 03:39:47;;;;;;;0.50;0.22;;;21.10;71.10;;;;;;6298863;28;20045;-53
2023/04/01 03:42:49;;;;;;;0.25;0.15;;;21.00;71.00;;;;;;6299134;28;20118;-49
2023/04/01 03:45:51;;;;;;;0.35;0.20;;;21.10;71.10;;;;;;6299046;28;20036;-54
2023/04/01 03:48:52;;;;;;;0.47;0.22;;;21.10;70.70;;;;;;6298736;28;20063;-49
2023/04/01 03:51:56;;;;;;;0.38;0.20;;;21.10;71.10;;;;;;6299074;28;20052;-52
2023/04/01 03:54:58;;;;;;;0.80;0.38;;;21.00;70.90;;;;;;6298751;28;20051;-51
2023/04/01 03:58:01;;;;;;;0.47;0.28;;;21.10;71.10;;;;;;6298506;28;20044;-52
2023/04/01 04:01:04;;;;;;;0.50;0.30;;;21.00;71.10;;;;;;6298273;28;20556;-51
2023/04/01 04:04:07;;;;;;;1.65;0.43;;;21.10;71.10;;;;;;6298569;28;20136;-48
2023/04/01 04:07:09;;;;;;;1.10;0.40;;;21.10;71.00;;;;;;6298137;28;20386;-48
2023/04/01 04:10:30;;;;;;;1.42;0.50;;;21.00;71.00;;;;;;6298022;28;20455;-53
2023/04/01 04:13:32;;;;;;;0.75;0.40;;;20.90;71.00;;;;;;6298136;28;20064;-46
2023/04/01 04:16:36;;;;;;;1.35;0.68;;;21.00;71.00;;;;;;6298221;28;20044;-52
2023/04/01 04:19:38;;;;;;;2.00;0.63;;;21.00;70.80;;;;;;6298108;28;20044;-54
2023/04/01 04:22:39;;;;;;;;;;;21.10;71.20;;;;;;6298502;28;20060;-49
2023/04/01 04:25:55;;;;;;;1.52;0.43;;;21.00;71.50;;;;;;6298345;28;19920;-53
2023/04/01 04:28:56;;;;;;;1.40;0.75;;;21.00;71.00;;;;;;6298103;28;20055;-49
2023/04/01 04:31:58;;;;;;;2.08;0.75;;;21.00;71.10;;;;;;6280609;28;20048;-51
2023/04/01 04:35:06;;;;;;;2.13;0.88;;;21.00;71.30;;;;;;6297716;28;20075;-49
2023/04/01 04:38:08;;;;;;;2.17;0.80;;;20.80;71.00;;;;;;6297119;28;20439;-52
2023/04/01 04:41:12;;;;;;;4.20;0.90;;;21.00;71.30;;;;;;6297626;28;20052;-54
2023/04/01 04:44:15;;;;;;;2.10;0.60;;;20.90;71.00;;;;;;6280189;28;20128;-52
2023/04/01 04:47:17;;;;;;;3.30;0.65;;;21.00;71.30;;;;;;6297861;28;20044;-50
2023/04/01 04:50:19;;;;;;;2.53;0.68;;;21.00;71.10;;;;;;6297611;28;20044;-53
2023/04/01 04:53:20;;;;;;;;;;;21.10;71.20;;;;;;6297780;28;20102;-51
2023/04/01 04:56:25;;;;;;;2.55;0.73;;;21.60;72.00;;;;;;6297768;28;20368;-49
2023/04/01 04:59:37;;;;;;;1.50;0.55;;;20.90;71.20;;;;;;6281064;28;20055;-50
2023/04/01 05:02:43;;;;;;;1.92;0.55;;;21.00;71.10;;;;;;6297278;28;20075;-50
2023/04/01 05:05:50;;;;;;;;;;;20.80;71.10;;;;;;6279989;28;20074;-52
2023/04/01 05:08:51;;;;;;;1.90;0.63;;;21.00;71.30;;;;;;6279300;28;19974;-51
2023/04/01 05:11:59;;;;;;;2.40;0.52;;;21.00;71.20;;;;;;6247604;28;20055;-49
2023/04/01 05:15:06;;;;;;;1.15;0.50;;;20.90;71.00;;;;;;6297423;28;20040;-51
2023/04/01 05:18:11;;;;;;;1.00;0.52;;;21.00;71.10;;;;;;6279745;28;20049;-49
2023/04/01 05:21:13;;;;;;;;;;;21.00;71.30;;;;;;6297323;28;20094;-50
2023/04/01 05:24:15;;;;;;;1.67;0.38;;;20.90;71.50;;;;;;6279325;28;20015;-49
2023/04/01 05:27:18;;;;;;;1.25;0.55;;;20.90;68.70;;;;;;6297090;28;20532;-47
2023/04/01 05:30:21;;;;;;;1.33;0.50;;;20.80;71.20;;;;;;6296811;28;20123;-48
2023/04/01 05:33:42;;;;;;;1.13;0.40;;;20.90;71.90;;;;;;6296515;28;20051;-53
2023/04/01 05:36:44;;;;;;;0.68;0.43;;;21.00;71.50;;;;;;6296801;28;20037;-49
2023/04/01 05:39:45;;;;;;;0.98;0.40;;;20.90;71.10;;;;;;6278760;28;20041;-48
2023/04/01 05:42:47;;;;;;;0.50;0.30;;;20.80;71.40;;;;;;6296545;28;20050;-51
2023/04/01 05:45:50;;;;;;;0.93;0.30;;;20.90;72.00;;;;;;6296829;28;20086;-50
2023/04/01 05:49:08;;;;;;;0.70;0.40;;;20.90;71.70;;;;;;6296260;28;20412;-50
2023/04/01 05:52:10;;;;;;;1.05;0.47;;;20.80;71.60;;;;;;6300830;28;20174;-47
2023/04/01 05:55:11;;;;;;;;;;;20.90;71.70;;;;;;6301664;28;20044;-48
2023/04/01 05:58:14;;;;;;;0.50;0.20;;;20.90;72.10;;;;;;6300886;28;19920;-51
2023/04/01 06:01:18;;;;;;;1.30;0.40;;;20.80;71.70;;;;;;6300697;28;20044;-52
2023/04/01 06:04:21;;;;;;;;;;;20.90;71.70;;;;;;6301445;28;20573;-52
2023/04/01 06:07:22;;;;;;;0.38;0.20;;;21.30;68.70;;;;;;6300739;28;20019;-51
2023/04/01 06:10:42;;;;;;;0.52;0.20;;;20.90;71.40;;;;;;6300623;28;20094;-53
2023/04/01 06:14:00;;;;;;;0.93;0.30;;;20.90;71.30;;;;;;6300834;28;20127;-49
2023/04/01 06:17:19;;;;;;;0.95;0.30;;;20.70;71.60;;;;;;6300709;28;20044;-51
2023/04/01 06:20:26;;;;;;;0.40;0.30;;;20.70;71.50;;;;;;6300495;28;20201;-53
2023/04/01 06:23:45;;;;;;;0.60;0.20;;;20.90;71.60;;;;;;6282526;28;20053;-52
2023/04/01 06:26:56;;;;;;;0.55;0.20;;;20.80;71.50;;;;;;6300603;28;20055;-53
2023/04/01 06:30:18;;;;;;;0.85;0.40;;;21.00;71.70;;;;;;6300308;28;20056;-51
2023/04/01 06:33:32;;;;;;;0.90;0.30;;;20.90;71.60;;;;;;6300109;28;20044;-53
2023/04/01 06:36:47;;;;;;;0.88;0.50;;;20.80;71.60;;;;;;6299787;28;20072;-52
2023/04/01 06:40:05;;;;;;;0.85;0.30;;;21.00;71.60;;;;;;6300225;28;20037;-52
2023/04/01 06:43:16;;;;;;;0.45;0.25;;;20.90;71.60;;;;;;6299861;28;20070;-52
2023/04/01 06:46:42;;;;;;;0.30;0.30;;;20.80;71.60;;;;;;6300069;28;20114;-50
2023/04/01 06:50:11;;;;;;;0.52;0.20;;;20.80;71.70;;;;;;6299731;28;20063;-53
2023/04/01 06:53:35;;;;;;;0.30;0.28;;;21.20;68.30;;;;;;6299782;28;20048;-53
2023/04/01 06:56:55;;;;;;;0.63;0.30;;;20.90;71.70;;;;;;6283839;28;20120;-51
2023/04/01 07:00:00;;;;;;;0.75;0.32;;;20.80;71.50;;;;;;6299892;28;20049;-53
2023/04/01 07:03:16;;;;;;;0.40;0.20;;;20.80;71.60;;;;;;6281206;28;20053;-50
2023/04/01 07:06:27;;;;;;;0.30;0.30;;;20.80;71.70;;;;;;6299357;28;20040;-50
2023/04/01 07:09:37;;;;;;;0.93;0.30;;;20.90;71.80;;;;;;6299742;28;20048;-51
2023/04/01 07:13:03;;;;;;;0.38;0.20;;;20.80;72.40;;;;;;6284729;28;20079;-53
2023/04/01 07:16:24;;;;;;;0.55;0.30;;;20.80;71.80;;;;;;6299327;28;20450;-52
2023/04/01 07:19:31;;;;;;;0.45;0.20;;;20.90;71.10;;;;;;6299048;28;20059;-49
2023/04/01 07:22:43;;;;;;;0.60;0.30;;;20.80;71.70;;;;;;6282607;28;20124;-51
2023/04/01 07:25:59;;;;;;;0.60;0.25;;;20.80;71.60;;;;;;6283167;28;20099;-48
2023/04/01 07:29:21;;;;;;;0.47;0.28;;;20.90;71.80;;;;;;6298419;28;20040;-52
2023/04/01 07:32:40;;;;;;;0.93;0.50;;;20.90;71.70;;;;;;6281871;28;20052;-54
2023/04/01 07:35:47;;;;;;;0.50;0.30;;;20.90;71.70;;;;;;6299252;28;20389;-44
2023/04/01 07:39:03;;;;;;;0.32;0.17;;;20.80;71.70;;;;;;6299302;28;20083;-51
2023/04/01 07:42:30;;;;;;;0.28;0.28;;;20.80;71.60;;;;;;6298514;28;20044;-51
2023/04/01 07:45:38;;;;;;;0.85;0.20;;;20.80;71.70;;;;;;6299009;28;20388;-53
2023/04/01 07:48:48;;;;;;;0.47;0.22;;;20.90;71.70;;;;;;6280973;28;20048;-53
2023/04/01 07:51:58;;;;;;;0.65;0.30;;;20.80;71.70;;;;;;6298607;28;20050;-51
2023/04/01 07:55:10;;;;;;;0.25;0.20;;;21.60;72.10;;;;;;6298807;28;20045;-51
2023/04/01 07:58:17;;;;;;;0.63;0.25;;;20.90;71.50;;;;;;6298466;28;20399;-52
2023/04/01 08:01:28;;;;;;;0.93;0.35;;;21.00;71.80;;;;;;6281388;28;20055;-51
2023/04/01 08:04:49;;;;;;;0.57;0.25;;;20.90;72.30;;;;;;6298511;28;20119;-50
2023/04/01 08:07:58;;;;;;;0.28;0.10;;;20.90;71.70;;;;;;6298256;28;20045;-52
2023/04/01 08:11:31;;;;;;;0.55;0.35;;;21.10;71.70;;;;;;6297877;28;20428;-48
2023/04/01 08:15:00;;;;;;;1.30;0.30;;;20.90;71.70;;;;;;6298483;28;20481;-47
2023/04/01 08:18:31;;;;;;;0.20;0.20;;;20.90;71.70;;;;;;6298244;28;20079;-53
2023/04/01 08:21:38;;;;;;;0.40;0.20;;;21.20;71.90;;;;;;6298055;28;20041;-52
2023/04/01 08:24:43;;;;;;;0.38;0.20;;;21.10;71.80;;;;;;6280949;28;20055;-51
2023/04/01 08:28:03;;;;;;;0.60;0.20;;;21.00;71.60;;;;;;6281883;28;20045;-52
2023/04/01 08:31:09;;;;;;;0.75;0.30;;;21.00;71.50;;;;;;6297854;28;20150;-53
2023/04/01 08:34:19;;;;;;;0.65;0.35;;;21.00;71.50;;;;;;6280014;28;20471;-51
2023/04/01 08:37:29;;;;;;;0.55;0.22;;;21.30;68.10;;;;;;6280462;28;20048;-49
2023/04/01 08:40:55;;;;;;;0.25;0.25;;;21.00;71.40;;;;;;6297560;28;20048;-49
2023/04/01 08:44:17;;;;;;;0.70;0.30;;;21.00;71.40;;;;;;6281190;28;20508;-51
2023/04/01 08:47:33;;;;;;;0.43;0.20;;;21.10;71.50;;;;;;6297569;28;20044;-50
2023/04/01 08:50:52;;;;;;;0.98;0.35;;;21.00;71.40;;;;;;6297506;28;20080;-52
2023/04/01 08:54:17;;;;;;;0.50;0.30;;;21.00;71.30;;;;;;6298235;28;20119;-51
2023/04/01 08:57:34;;;;;;;0.88;0.30;;;21.10;71.50;;;;;;6297679;28;20047;-48
2023/04/01 09:01:01;;;;;;;0.30;0.20;;;21.30;71.30;;;;;;6297063;28;20044;-53
2023/04/01 09:04:31;;;;;;;0.50;0.30;;;21.10;71.30;;;;;;6297358;28;20412;-52
2023/04/01 09:07:44;;;;;;;0.52;0.35;;;21.10;71.10;;;;;;6297139;28;20045;-51
2023/04/01 09:10:59;;;;;;;0.50;0.30;;;21.00;71.00;;;;;;6297149;28;20044;-51
2023/04/01 09:14:37;;;;;;;1.10;0.20;;;21.50;71.40;;;;;;6281719;28;20047;-53
2023/04/01 09:18:17;;;;;;;1.00;0.20;;;21.10;71.10;;;;;;6297140;28;20050;-52
2023/04/01 09:21:37;;;;;;;0.57;0.30;;;21.10;71.00;;;;;;6296598;28;20127;-52
2023/04/01 09:24:56;;;;;;;0.43;0.30;;;21.20;70.80;;;;;;6296424;28;20084;-53
2023/04/01 09:28:10;;;;;;;0.40;0.30;;;21.40;70.80;;;;;;6296816;28;20045;-50
2023/04/01 09:31:32;;;;;;;0.52;0.20;;;21.10;70.60;;;;;;6280361;28;20060;-53
2023/04/01 09:35:00;;;;;;;0.82;0.30;;;21.30;70.70;;;;;;6280955;28;20098;-54
2023/04/01 09:38:21;;;;;;;0.32;0.20;;;21.10;70.60;;;;;;6296772;28;20090;-47
2023/04/01 09:41:29;;;;;;;0.90;0.30;;;21.20;70.40;;;;;;6296824;28;20075;-51
2023/04/01 09:44:45;;;;;;;0.20;0.10;;;21.00;70.00;;;;;;6296605;28;20102;-51
2023/04/01 09:48:03;;;;;;;0.80;0.38;;;21.10;70.20;;;;;;6296467;28;20098;-53
2023/04/01 09:51:16;;;;;;;0.50;0.40;;;21.20;70.30;;;;;;6278782;28;20048;-53
2023/04/01 09:54:31;;;;;;;0.30;0.20;;;21.20;70.00;;;;;;6296645;28;20036;-52
2023/04/01 09:57:56;;;;;;;0.30;0.20;;;21.30;69.90;;;;;;6296378;28;20135;-50
2023/04/01 10:01:27;;;;;;;1.00;0.30;;;21.20;69.90;;;;;;6295924;28;20401;-51
2023/04/01 10:05:05;;;;;;;0.40;0.20;;;21.30;69.90;;;;;;6296549;28;20056;-50
2023/04/01 10:08:29;;;;;;;0.63;0.25;;;21.20;69.90;;;;;;6283595;28;20571;-46
2023/04/01 10:12:05;;;;;;;0.45;0.22;;;21.30;69.10;;;;;;6296735;28;20094;-49
2023/04/01 10:15:33;;;;;;;0.57;0.28;;;21.20;69.70;;;;;;6280692;28;20056;-53
2023/04/01 10:18:57;;;;;;;0.30;0.20;;;21.10;69.60;;;;;;6295662;28;20048;-51
2023/04/01 10:22:14;;;;;;;0.68;0.20;;;21.20;69.60;;;;;;6296216;28;20053;-48
2023/04/01 10:25:38;;;;;;;0.30;0.20;;;21.30;69.50;;;;;;6280135;28;20449;-49
2023/04/01 10:29:02;;;;;;;0.52;0.20;;;21.30;69.80;;;;;;6295900;28;20090;-49
2023/04/01 10:32:36;;;;;;;0.68;0.20;;;21.30;69.60;;;;;;6295932;28;20135;-47
2023/04/01 10:36:14;;;;;;;0.50;0.20;;;21.30;69.80;;;;;;6295919;28;20045;-51
2023/04/01 10:39:43;;;;;;;0.50;0.22;;;21.30;69.60;;;;;;6300254;28;20124;-52
2023/04/01 10:43:33;;;;;;;0.75;0.28;;;21.30;69.60;;;;;;6286702;28;20048;-51
2023/04/01 10:47:05;;;;;;;0.30;0.20;;;21.40;69.50;;;;;;6254176;28;20492;-52
2023/04/01 10:50:25;;;;;;;0.82;0.28;;;21.30;69.40;;;;;;6284411;28;20462;-45
2023/04/01 10:53:42;;;;;;;0.20;0.20;;;21.30;69.30;;;;;;6299844;28;20504;-49
2023/04/01 10:57:21;;;;;;;0.45;0.20;;;21.30;69.20;;;;;;6299663;28;20041;-49
2023/04/01 11:01:06;;;;;;;0.70;0.30;;;21.40;69.30;;;;;;6299714;28;20081;-46
2023/04/01 11:04:46;;;;;;;0.20;0.20;;;21.40;69.10;;;;;;6299318;28;20044;-49
2023/04/01 11:08:37;;;;;;;0.90;0.20;;;21.40;69.10;;;;;;6288738;28;20048;-51
2023/04/01 11:12:07;;;;;;;0.30;0.10;;;21.60;64.80;;;;;;6286249;28;20040;-48
2023/04/01 11:15:37;;;;;;;0.68;0.40;;;21.40;68.80;;;;;;6299502;28;20106;-52
2023/04/01 11:19:06;;;;;;;0.47;0.30;;;21.40;68.70;;;;;;6300248;28;20048;-53
2023/04/01 11:22:30;;;;;;;0.68;0.30;;;21.50;68.80;;;;;;6299340;28;20399;-51
2023/04/01 11:25:52;;;;;;;0.20;0.20;;;21.40;68.50;;;;;;6283683;28;20573;-53
2023/04/01 11:29:31;;;;;;;0.95;0.30;;;21.40;68.50;;;;;;6298839;28;20080;-47
2023/04/01 11:32:50;;;;;;;0.20;0.20;;;21.50;68.60;;;;;;6299078;28;20508;-51
2023/04/01 11:36:06;;;;;;;0.63;0.13;;;21.50;68.40;;;;;;6299129;28;20489;-51
2023/04/01 11:39:21;;;;;;;0.45;0.20;;;21.50;68.40;;;;;;6298961;28;20076;-50
2023/04/01 11:42:49;;;;;;;0.52;0.20;;;21.50;68.90;;;;;;6283225;28;20452;-48
2023/04/01 11:46:11;;;;;;;0.45;0.20;;;21.50;68.40;;;;;;6298828;28;20415;-44
2023/04/01 11:49:30;;;;;;;0.95;0.20;;;21.50;68.30;;;;;;6280625;28;20128;-52
2023/04/01 11:52:59;;;;;;;0.38;0.20;;;21.50;68.40;;;;;;6298960;28;20055;-46
2023/04/01 11:56:12;;;;;;;2.47;0.30;;;21.50;68.50;;;;;;6298591;28;20044;-49
2023/04/01 11:59:40;;;;;;;0.50;0.20;;;21.50;68.60;;;;;;6298573;28;20070;-51
2023/04/01 12:02:54;;;;;;;0.38;0.20;;;21.50;68.70;;;;;;6298259;28;20087;-51
2023/04/01 12:06:05;;;;;;;0.30;0.20;;;21.50;68.90;;;;;;6298656;28;20053;-51
2023/04/01 12:09:16;;;;;;;0.40;0.28;;;21.60;69.70;;;;;;6298492;28;20047;-50
2023/04/01 12:12:25;;;;;;;0.65;0.30;;;21.60;68.80;;;;;;6298060;28;20573;-52
2023/04/01 12:15:37;;;;;;;0.40;0.20;;;21.50;69.20;;;;;;6298537;28;20036;-51
2023/04/01 12:18:40;;;;;;;;;;;21.50;69.40;;;;;;6299129;28;20476;-52
2023/04/01 12:21:49;;;;;;;0.22;0.10;;;22.20;70.30;;;;;;6298885;28;19921;-51
2023/04/01 12:24:59;;;;;;;0.55;0.20;;;21.50;69.60;;;;;;6298494;28;20044;-49
2023/04/01 12:28:10;;;;;;;0.50;0.30;;;21.60;69.90;;;;;;6298125;28;20041;-52
2023/04/01 12:31:28;;;;;;;0.20;0.13;;;21.40;69.90;;;;;;6281246;28;20117;-50
2023/04/01 12:34:49;;;;;;;0.80;0.28;;;21.60;70.30;;;;;;6297766;28;20041;-49
2023/04/01 12:38:08;;;;;;;0.40;0.30;;;21.50;70.40;;;;;;6297865;28;20044;-52
2023/04/01 12:41:19;;;;;;;0.47;0.20;;;21.50;70.40;;;;;;6297629;28;20291;-48
2023/04/01 12:44:38;;;;;;;0.52;0.20;;;21.50;70.60;;;;;;6298549;28;20048;-50
2023/04/01 12:48:05;;;;;;;0.88;0.20;;;21.40;70.60;;;;;;6297556;28;20044;-52
2023/04/01 12:51:29;;;;;;;0.30;0.15;;;21.50;70.60;;;;;;6297792;28;20070;-50
2023/04/01 12:54:50;;;;;;;0.25;0.20;;;21.40;70.60;;;;;;6297394;28;20110;-49
2023/04/01 12:58:20;;;;;;;0.35;0.22;;;21.50;70.40;;;;;;6297414;28;20481;-52
2023/04/01 13:01:47;;;;;;;0.32;0.20;;;21.60;70.40;;;;;;6296540;28;20399;-50
2023/04/01 13:05:13;;;;;;;0.38;0.10;;;21.50;69.90;;;;;;6297337;28;20044;-45
2023/04/01 13:08:29;;;;;;;0.47;0.20;;;21.90;69.90;;;;;;6297231;28;20040;-47
2023/04/01 13:11:46;;;;;;;0.32;0.20;;;21.60;68.90;;;;;;6297130;28;20045;-47
2023/04/01 13:15:07;;;;;;;0.43;0.28;;;21.60;69.30;;;;;;6297007;28;20044;-52
2023/04/01 13:18:22;;;;;;;0.10;0.10;;;21.60;69.50;;;;;;6280716;28;20044;-47
2023/04/01 13:21:40;;;;;;;0.65;0.32;;;21.30;68.80;;;;;;6297033;28;20056;-51
2023/04/01 13:24:48;;;;;;;0.40;0.30;;;21.50;68.60;;;;;;6279984;28;20048;-47
2023/04/01 13:27:56;;;;;;;0.35;0.25;;;21.60;68.60;;;;;;6297250;28;20515;-46
2023/04/01 13:31:05;;;;;;;0.50;0.30;;;21.60;68.60;;;;;;6296973;28;20052;-50
2023/04/01 13:34:23;;;;;;;0.30;0.20;;;21.70;68.30;;;;;;6296863;28;20492;-47
2023/04/01 13:37:42;;;;;;;0.40;0.20;;;21.50;68.00;;;;;;6296684;28;20052;-49
2023/04/01 13:40:53;;;;;;;0.25;0.20;;;21.50;67.90;;;;;;6297122;28;20484;-47
2023/04/01 13:44:13;;;;;;;0.40;0.20;;;21.60;67.90;;;;;;6296796;28;20044;-52
2023/04/01 13:47:37;;;;;;;0.43;0.30;;;21.60;67.80;;;;;;6297304;28;20044;-50
2023/04/01 13:51:01;;;;;;;0.50;0.20;;;21.50;67.70;;;;;;6280996;28;20404;-46
2023/04/01 13:54:16;;;;;;;0.52;0.20;;;21.70;67.70;;;;;;6296510;28;20084;-47
2023/04/01 13:57:34;;;;;;;0.45;0.30;;;21.60;67.80;;;;;;6296504;28;20060;-48
2023/04/01 14:00:46;;;;;;;0.80;0.35;;;21.70;67.80;;;;;;6296510;28;20417;-49
2023/04/01 14:04:04;;;;;;;0.45;0.30;;;21.60;67.50;;;;;;6296417;28;20127;-52
2023/04/01 14:07:16;;;;;;;0.73;0.20;;;21.70;67.60;;;;;;6278695;28;20080;-49
2023/04/01 14:10:35;;;;;;;0.60;0.20;;;21.70;67.70;;;;;;6296618;28;20079;-50
2023/04/01 14:13:46;;;;;;;0.50;0.20;;;21.70;67.70;;;;;;6300754;28;20056;-52
2023/04/01 14:17:07;;;;;;;0.40;0.17;;;21.70;67.60;;;;;;6300583;28;20389;-49
2023/04/01 14:20:22;;;;;;;0.38;0.28;;;21.60;67.40;;;;;;6300319;28;20044;-50
2023/04/01 14:23:37;;;;;;;0.63;0.40;;;21.80;67.50;;;;;;6300452;28;20044;-53
2023/04/01 14:27:00;;;;;;;0.20;0.20;;;22.00;67.50;;;;;;6300625;28;20069;-48
2023/04/01 14:30:28;;;;;;;0.22;0.20;;;21.60;67.20;;;;;;6251654;28;20052;-51
2023/04/01 14:33:41;;;;;;;0.10;0.10;;;21.60;63.70;;;;;;6300123;28;20045;-50
2023/04/01 14:36:53;;;;;;;0.50;0.22;;;21.70;67.10;;;;;;6282394;28;20041;-52
2023/04/01 14:40:12;;;;;;;0.77;0.20;;;21.60;67.00;;;;;;6300320;28;20516;-50
2023/04/01 14:43:27;;;;;;;0.30;0.20;;;21.60;67.10;;;;;;6300029;28;20511;-52
2023/04/01 14:46:48;;;;;;;0.63;0.20;;;21.50;66.90;;;;;;6283231;28;20044;-53
2023/04/01 14:49:53;;;;;;;0.65;0.10;;;21.70;66.90;;;;;;6284122;28;20385;-51
2023/04/01 14:52:59;;;;;;;0.60;0.20;;;21.80;67.00;;;;;;6282125;28;20411;-50
2023/04/01 14:56:02;;;;;;;0.20;0.20;;;21.50;66.80;;;;;;6282276;28;20436;-50
2023/04/01 14:59:09;;;;;;;0.30;0.20;;;21.50;67.00;;;;;;6282152;28;20045;-49
2023/04/01 15:02:30;;;;;;;0.43;0.20;;;21.70;67.10;;;;;;6299684;28;20037;-49
2023/04/01 15:05:47;;;;;;;0.35;0.28;;;21.60;67.20;;;;;;6299615;28;20405;-49
2023/04/01 15:09:01;;;;;;;0.57;0.20;;;21.70;67.50;;;;;;6299852;28;20047;-52
2023/04/01 15:12:12;;;;;;;0.20;0.13;;;21.70;64.10;;;;;;6299490;28;20051;-49
2023/04/01 15:15:18;;;;;;;;;;;21.70;67.70;;;;;;6299889;28;20508;-50
2023/04/01 15:18:30;;;;;;;0.38;0.20;;;21.60;68.00;;;;;;6299765;28;19928;-49
2023/04/01 15:21:40;;;;;;;;;;;21.70;67.70;;;;;;6299846;28;20069;-51
2023/04/01 15:24:48;;;;;;;0.55;0.20;;;22.50;68.50;;;;;;6298666;28;20268;-50
2023/04/01 15:27:55;;;;;;;0.45;0.30;;;21.50;67.40;;;;;;6281668;28;20055;-50
2023/04/01 15:31:03;;;;;;;1.20;0.47;;;21.70;67.40;;;;;;6299374;28;20049;-51
2023/04/01 15:34:27;;;;;;;0.10;0.10;;;21.60;67.20;;;;;;6299768;28;20067;-48
2023/04/01 15:37:38;;;;;;;0.50;0.25;;;22.10;63.90;;;;;;6282606;28;20048;-48
2023/04/01 15:40:46;;;;;;;0.17;0.10;;;21.70;66.90;;;;;;6299185;28;20048;-46
2023/04/01 15:43:48;;;;;;;0.80;0.50;;;21.70;66.60;;;;;;6298984;28;20045;-46
2023/04/01 15:46:52;;;;;;;0.65;0.30;;;21.60;66.50;;;;;;6281294;28;20082;-51
2023/04/01 15:49:57;;;;;;;0.22;0.20;;;21.80;66.50;;;;;;6299108;28;20045;-53
2023/04/01 15:53:13;;;;;;;0.50;0.20;;;21.70;66.00;;;;;;6298896;28;20522;-50
2023/04/01 15:56:26;;;;;;;0.40;0.20;;;21.90;65.80;;;;;;6298721;28;20040;-45
2023/04/01 15:59:47;;;;;;;0.30;0.13;;;21.70;65.50;;;;;;6298386;28;20151;-45
2023/04/01 16:02:52;;;;;;;0.10;0.10;;;21.70;65.30;;;;;;6298746;28;20486;-52
2023/04/01 16:06:14;;;;;;;0.20;0.10;;;21.70;65.30;;;;;;6298967;28;20484;-50
2023/04/01 16:09:34;;;;;;;0.22;0.20;;;21.70;65.00;;;;;;6281092;28;20060;-46
2023/04/01 16:12:53;;;;;;;0.30;0.20;;;21.80;65.00;;;;;;6298350;28;20067;-51
2023/04/01 16:16:01;;;;;;;0.55;0.20;;;21.80;64.90;;;;;;6298298;28;20047;-52
2023/04/01 16:19:17;;;;;;;0.30;0.20;;;21.60;64.60;;;;;;6281208;28;20037;-50
2023/04/01 16:22:25;;;;;;;0.30;0.22;;;21.70;64.60;;;;;;6298210;28;20048;-47
2023/04/01 16:25:36;;;;;;;0.57;0.20;;;21.70;64.70;;;;;;6298109;28;20044;-45
2023/04/01 16:28:49;;;;;;;0.75;0.40;;;21.70;64.80;;;;;;6280191;28;20171;-51
2023/04/01 16:31:55;;;;;;;0.50;0.22;;;21.60;64.70;;;;;;6298252;28;20045;-46
2023/04/01 16:35:13;;;;;;;1.38;0.20;;;21.70;64.80;;;;;;6296617;28;20387;-48
2023/04/01 16:38:23;;;;;;;0.30;0.30;;;21.80;65.00;;;;;;6297305;28;20076;-49
2023/04/01 16:41:29;;;;;;;0.55;0.38;;;21.80;65.00;;;;;;6298107;28;20118;-49
2023/04/01 16:44:43;;;;;;;0.40;0.17;;;21.90;65.20;;;;;;6297778;28;20055;-51
2023/04/01 16:47:50;;;;;;;0.43;0.40;;;21.70;65.10;;;;;;6297622;28;20044;-51